sensor_id;sensor_type;location;lat;lon;timestamp;temperature;humidity
2893;DHT22;1456;51.840;12.184;2023-07-31T00:01:11;16.40;99.90
2893;DHT22;1456;51.840;12.184;2023-07-31T00:03:37;16.50;99.90
2893;DHT22;1456;51.840;12.184;2023-07-31T00:06:03;16.50;99.90
2893;DHT22;1456;51.840;12.184;2023-07-31T00:08:32;16.50;99.90
2893;DHT22;1456;51.840;12.184;2023-07-31T00:10:59;16.50;99.90
2893;DHT22;1456;51.840;12.184;2023-07-31T00:13:26;16.50;99.90
2893;DHT22;1456;51.840;12.184;2023-07-31T00:15:51;16.40;99.90
2893;DHT22;1456;51.840;12.184;2023-07-31T00:18:18;16.40;99.90
2893;DHT22;1456;51.840;12.184;2023-07-31T00:20:44;16.50;99.90
2893;DHT22;1456;51.840;12.184;2023-07-31T00:23:09;16.50;99.90
2893;DHT22;1456;51.840;12.184;2023-07-31T00:25:35;16.60;99.90
2893;DHT22;1456;51.840;12.184;2023-07-31T00:28:02;16.60;99.90
2893;DHT22;1456;51.840;12.184;2023-07-31T00:30:29;16.60;99.90
2893;DHT22;1456;51.840;12.184;2023-07-31T00:32:55;16.60;99.90
2893;DHT22;1456;51.840;12.184;2023-07-31T00:35:21;16.60;99.90
2893;DHT22;1456;51.840;12.184;2023-07-31T00:37:47;16.60;99.90
2893;DHT22;1456;51.840;12.184;2023-07-31T00:40:12;16.60;99.90
2893;DHT22;1456;51.840;12.184;2023-07-31T00:42:39;16.60;99.90
2893;DHT22;1456;51.840;12.184;2023-07-31T00:45:05;16.70;99.90
2893;DHT22;1456;51.840;12.184;2023-07-31T00:47:31;16.70;99.90
2893;DHT22;1456;51.840;12.184;2023-07-31T00:49:57;16.70;99.90
2893;DHT22;1456;51.840;12.184;2023-07-31T00:52:24;16.60;99.90
2893;DHT22;1456;51.840;12.184;2023-07-31T00:54:50;16.50;99.90
2893;DHT22;1456;51.840;12.184;2023-07-31T00:57:17;16.30;99.90
2893;DHT22;1456;51.840;12.184;2023-07-31T00:59:44;16.20;99.90
2893;DHT22;1456;51.840;12.184;2023-07-31T01:02:09;16.10;99.90
2893;DHT22;1456;51.840;12.184;2023-07-31T01:04:35;16.10;99.90
2893;DHT22;1456;51.840;12.184;2023-07-31T01:07:18;16.10;99.90
2893;DHT22;1456;51.840;12.184;2023-07-31T01:12:33;16.10;99.90
2893;DHT22;1456;51.840;12.184;2023-07-31T01:15:05;16.10;99.90
2893;DHT22;1456;51.840;12.184;2023-07-31T01:17:32;16.10;99.90
2893;DHT22;1456;51.840;12.184;2023-07-31T01:20:01;16.20;99.90
2893;DHT22;1456;51.840;12.184;2023-07-31T01:28:05;16.30;99.90
2893;DHT22;1456;51.840;12.184;2023-07-31T01:30:37;16.40;99.90
2893;DHT22;1456;51.840;12.184;2023-07-31T01:33:05;16.50;99.90
2893;DHT22;1456;51.840;12.184;2023-07-31T01:35:37;16.50;99.90
2893;DHT22;1456;51.840;12.184;2023-07-31T01:38:04;16.50;99.90
2893;DHT22;1456;51.840;12.184;2023-07-31T01:40:31;16.60;99.90
2893;DHT22;1456;51.840;12.184;2023-07-31T01:42:57;16.60;99.90
2893;DHT22;1456;51.840;12.184;2023-07-31T01:45:22;16.60;99.90
2893;DHT22;1456;51.840;12.184;2023-07-31T01:47:48;16.60;99.90
2893;DHT22;1456;51.840;12.184;2023-07-31T01:50:13;16.50;99.90
2893;DHT22;1456;51.840;12.184;2023-07-31T01:52:41;16.40;99.90
2893;DHT22;1456;51.840;12.184;2023-07-31T01:55:07;16.30;99.90
2893;DHT22;1456;51.840;12.184;2023-07-31T01:57:34;16.30;99.90
2893;DHT22;1456;51.840;12.184;2023-07-31T02:00:00;16.30;99.90
2893;DHT22;1456;51.840;12.184;2023-07-31T02:02:26;16.20;99.90
2893;DHT22;1456;51.840;12.184;2023-07-31T02:04:52;16.20;99.90
2893;DHT22;1456;51.840;12.184;2023-07-31T02:07:17;16.20;99.90
2893;DHT22;1456;51.840;12.184;2023-07-31T02:09:44;16.20;99.90
2893;DHT22;1456;51.840;12.184;2023-07-31T02:12:11;16.30;99.90
2893;DHT22;1456;51.840;12.184;2023-07-31T02:14:36;16.30;99.90
2893;DHT22;1456;51.840;12.184;2023-07-31T02:17:03;16.40;99.90
2893;DHT22;1456;51.840;12.184;2023-07-31T02:19:29;16.50;99.90
2893;DHT22;1456;51.840;12.184;2023-07-31T02:21:54;16.50;99.90
2893;DHT22;1456;51.840;12.184;2023-07-31T02:24:24;16.50;99.90
2893;DHT22;1456;51.840;12.184;2023-07-31T02:26:49;16.40;99.90
2893;DHT22;1456;51.840;12.184;2023-07-31T02:29:16;16.40;99.90
2893;DHT22;1456;51.840;12.184;2023-07-31T02:31:41;16.40;99.90
2893;DHT22;1456;51.840;12.184;2023-07-31T02:34:07;16.40;99.90
2893;DHT22;1456;51.840;12.184;2023-07-31T02:36:34;16.40;99.90
2893;DHT22;1456;51.840;12.184;2023-07-31T02:39:02;16.50;99.90
2893;DHT22;1456;51.840;12.184;2023-07-31T02:41:29;16.60;99.90
2893;DHT22;1456;51.840;12.184;2023-07-31T02:43:57;16.70;99.90
2893;DHT22;1456;51.840;12.184;2023-07-31T02:46:24;16.70;99.90
2893;DHT22;1456;51.840;12.184;2023-07-31T02:48:50;16.80;99.90
2893;DHT22;1456;51.840;12.184;2023-07-31T02:51:19;16.80;99.90
2893;DHT22;1456;51.840;12.184;2023-07-31T02:53:47;16.90;99.90
2893;DHT22;1456;51.840;12.184;2023-07-31T02:56:13;16.90;99.90
2893;DHT22;1456;51.840;12.184;2023-07-31T02:58:39;16.90;99.90
2893;DHT22;1456;51.840;12.184;2023-07-31T03:01:06;16.90;99.90
2893;DHT22;1456;51.840;12.184;2023-07-31T03:03:33;16.80;99.90
2893;DHT22;1456;51.840;12.184;2023-07-31T03:05:58;16.80;99.90
2893;DHT22;1456;51.840;12.184;2023-07-31T03:08:25;16.70;99.90
2893;DHT22;1456;51.840;12.184;2023-07-31T03:10:51;16.80;99.90
2893;DHT22;1456;51.840;12.184;2023-07-31T03:13:17;16.80;99.90
2893;DHT22;1456;51.840;12.184;2023-07-31T03:15:43;16.80;99.90
2893;DHT22;1456;51.840;12.184;2023-07-31T03:18:09;16.80;99.90
2893;DHT22;1456;51.840;12.184;2023-07-31T03:20:35;16.80;99.90
2893;DHT22;1456;51.840;12.184;2023-07-31T03:23:01;16.80;99.90
2893;DHT22;1456;51.840;12.184;2023-07-31T03:25:28;16.60;99.90
2893;DHT22;1456;51.840;12.184;2023-07-31T03:27:54;16.60;99.90
2893;DHT22;1456;51.840;12.184;2023-07-31T03:30:21;16.40;99.90
2893;DHT22;1456;51.840;12.184;2023-07-31T03:32:47;16.30;99.90
2893;DHT22;1456;51.840;12.184;2023-07-31T03:35:14;16.10;99.90
2893;DHT22;1456;51.840;12.184;2023-07-31T03:37:39;16.10;99.90
2893;DHT22;1456;51.840;12.184;2023-07-31T03:40:05;16.00;99.90
2893;DHT22;1456;51.840;12.184;2023-07-31T03:42:31;16.00;99.90
2893;DHT22;1456;51.840;12.184;2023-07-31T03:44:58;15.80;99.90
2893;DHT22;1456;51.840;12.184;2023-07-31T03:47:23;15.80;99.90
2893;DHT22;1456;51.840;12.184;2023-07-31T03:49:49;15.70;99.90
2893;DHT22;1456;51.840;12.184;2023-07-31T03:52:16;15.70;99.90
2893;DHT22;1456;51.840;12.184;2023-07-31T03:54:41;15.70;99.90
2893;DHT22;1456;51.840;12.184;2023-07-31T03:57:10;15.80;99.90
2893;DHT22;1456;51.840;12.184;2023-07-31T03:59:36;15.80;99.90
2893;DHT22;1456;51.840;12.184;2023-07-31T04:02:04;15.90;99.90
2893;DHT22;1456;51.840;12.184;2023-07-31T04:04:32;15.90;99.90
2893;DHT22;1456;51.840;12.184;2023-07-31T04:07:00;15.90;99.90
2893;DHT22;1456;51.840;12.184;2023-07-31T04:09:26;15.80;99.90
2893;DHT22;1456;51.840;12.184;2023-07-31T04:11:53;15.90;99.90
2893;DHT22;1456;51.840;12.184;2023-07-31T04:14:21;16.00;99.90
2893;DHT22;1456;51.840;12.184;2023-07-31T04:16:46;16.00;99.90
2893;DHT22;1456;51.840;12.184;2023-07-31T04:19:13;16.10;99.90
2893;DHT22;1456;51.840;12.184;2023-07-31T04:21:42;16.20;99.90
2893;DHT22;1456;51.840;12.184;2023-07-31T04:24:07;16.30;99.90
2893;DHT22;1456;51.840;12.184;2023-07-31T04:26:33;16.10;99.90
2893;DHT22;1456;51.840;12.184;2023-07-31T04:28:59;16.20;99.90
2893;DHT22;1456;51.840;12.184;2023-07-31T04:31:27;16.20;99.90
2893;DHT22;1456;51.840;12.184;2023-07-31T04:33:55;16.30;99.90
2893;DHT22;1456;51.840;12.184;2023-07-31T04:36:21;16.20;99.90
2893;DHT22;1456;51.840;12.184;2023-07-31T04:38:47;16.30;99.90
2893;DHT22;1456;51.840;12.184;2023-07-31T04:41:13;16.30;99.90
2893;DHT22;1456;51.840;12.184;2023-07-31T04:43:39;16.30;99.90
2893;DHT22;1456;51.840;12.184;2023-07-31T04:46:06;16.30;99.90
2893;DHT22;1456;51.840;12.184;2023-07-31T04:48:31;16.40;99.90
2893;DHT22;1456;51.840;12.184;2023-07-31T04:50:58;16.60;99.90
2893;DHT22;1456;51.840;12.184;2023-07-31T04:53:24;16.60;99.90
2893;DHT22;1456;51.840;12.184;2023-07-31T04:55:51;16.50;99.90
2893;DHT22;1456;51.840;12.184;2023-07-31T04:58:18;16.50;99.90
2893;DHT22;1456;51.840;12.184;2023-07-31T05:00:45;16.50;99.90
2893;DHT22;1456;51.840;12.184;2023-07-31T05:03:11;16.40;99.90
2893;DHT22;1456;51.840;12.184;2023-07-31T05:05:38;16.30;99.90
2893;DHT22;1456;51.840;12.184;2023-07-31T05:08:03;16.20;99.90
2893;DHT22;1456;51.840;12.184;2023-07-31T05:10:30;16.10;99.90
2893;DHT22;1456;51.840;12.184;2023-07-31T05:13:07;15.90;99.90
2893;DHT22;1456;51.840;12.184;2023-07-31T05:15:34;15.80;99.90
2893;DHT22;1456;51.840;12.184;2023-07-31T05:18:01;15.80;99.90
2893;DHT22;1456;51.840;12.184;2023-07-31T05:20:26;15.70;99.90
2893;DHT22;1456;51.840;12.184;2023-07-31T05:22:53;15.70;99.90
2893;DHT22;1456;51.840;12.184;2023-07-31T05:25:20;15.60;99.90
2893;DHT22;1456;51.840;12.184;2023-07-31T05:27:53;15.60;99.90
2893;DHT22;1456;51.840;12.184;2023-07-31T05:30:20;15.60;99.90
2893;DHT22;1456;51.840;12.184;2023-07-31T05:32:46;15.70;99.90
2893;DHT22;1456;51.840;12.184;2023-07-31T05:35:13;15.70;99.90
2893;DHT22;1456;51.840;12.184;2023-07-31T05:37:41;15.70;99.90
2893;DHT22;1456;51.840;12.184;2023-07-31T05:40:07;15.70;99.90
2893;DHT22;1456;51.840;12.184;2023-07-31T05:42:33;15.60;99.90
2893;DHT22;1456;51.840;12.184;2023-07-31T05:44:58;15.60;99.90
2893;DHT22;1456;51.840;12.184;2023-07-31T05:47:24;15.70;99.90
2893;DHT22;1456;51.840;12.184;2023-07-31T05:49:50;15.70;99.90
2893;DHT22;1456;51.840;12.184;2023-07-31T05:52:19;15.70;99.90
2893;DHT22;1456;51.840;12.184;2023-07-31T05:54:47;15.70;99.90
2893;DHT22;1456;51.840;12.184;2023-07-31T05:57:13;15.60;99.90
2893;DHT22;1456;51.840;12.184;2023-07-31T05:59:42;15.70;99.90
2893;DHT22;1456;51.840;12.184;2023-07-31T06:02:11;15.60;99.90
2893;DHT22;1456;51.840;12.184;2023-07-31T06:04:36;15.60;99.90
2893;DHT22;1456;51.840;12.184;2023-07-31T06:07:09;15.70;99.90
2893;DHT22;1456;51.840;12.184;2023-07-31T06:09:37;15.60;99.90
2893;DHT22;1456;51.840;12.184;2023-07-31T06:12:03;15.60;99.90
2893;DHT22;1456;51.840;12.184;2023-07-31T06:14:30;15.70;99.90
2893;DHT22;1456;51.840;12.184;2023-07-31T06:16:56;15.80;99.90
2893;DHT22;1456;51.840;12.184;2023-07-31T06:19:23;15.80;99.90
2893;DHT22;1456;51.840;12.184;2023-07-31T06:21:49;15.80;99.90
2893;DHT22;1456;51.840;12.184;2023-07-31T06:24:15;15.80;99.90
2893;DHT22;1456;51.840;12.184;2023-07-31T06:26:44;15.80;99.90
2893;DHT22;1456;51.840;12.184;2023-07-31T06:29:12;15.80;99.90
2893;DHT22;1456;51.840;12.184;2023-07-31T06:31:40;15.90;99.90
2893;DHT22;1456;51.840;12.184;2023-07-31T06:34:07;15.90;99.90
2893;DHT22;1456;51.840;12.184;2023-07-31T06:36:33;15.90;99.90
2893;DHT22;1456;51.840;12.184;2023-07-31T06:38:58;15.90;99.90
2893;DHT22;1456;51.840;12.184;2023-07-31T06:41:25;15.90;99.90
2893;DHT22;1456;51.840;12.184;2023-07-31T06:43:50;16.00;99.90
2893;DHT22;1456;51.840;12.184;2023-07-31T06:46:17;16.00;99.90
2893;DHT22;1456;51.840;12.184;2023-07-31T06:48:43;16.00;99.90
2893;DHT22;1456;51.840;12.184;2023-07-31T06:51:08;16.00;99.90
2893;DHT22;1456;51.840;12.184;2023-07-31T06:53:34;16.10;99.90
2893;DHT22;1456;51.840;12.184;2023-07-31T06:56:01;16.20;99.90
2893;DHT22;1456;51.840;12.184;2023-07-31T06:58:27;16.40;99.90
2893;DHT22;1456;51.840;12.184;2023-07-31T07:00:54;16.50;99.90
2893;DHT22;1456;51.840;12.184;2023-07-31T07:03:20;16.50;99.90
2893;DHT22;1456;51.840;12.184;2023-07-31T07:05:47;16.50;99.90
2893;DHT22;1456;51.840;12.184;2023-07-31T07:08:13;16.50;99.90
2893;DHT22;1456;51.840;12.184;2023-07-31T07:10:39;16.50;99.90
2893;DHT22;1456;51.840;12.184;2023-07-31T07:13:04;16.60;99.90
2893;DHT22;1456;51.840;12.184;2023-07-31T07:15:32;16.60;99.90
2893;DHT22;1456;51.840;12.184;2023-07-31T07:17:58;16.70;99.90
2893;DHT22;1456;51.840;12.184;2023-07-31T07:20:23;16.80;99.90
2893;DHT22;1456;51.840;12.184;2023-07-31T07:22:49;16.80;99.90
2893;DHT22;1456;51.840;12.184;2023-07-31T07:25:15;17.10;99.90
2893;DHT22;1456;51.840;12.184;2023-07-31T07:27:42;17.30;99.90
2893;DHT22;1456;51.840;12.184;2023-07-31T07:30:14;17.60;99.90
2893;DHT22;1456;51.840;12.184;2023-07-31T07:32:40;17.90;99.90
2893;DHT22;1456;51.840;12.184;2023-07-31T07:35:06;18.20;99.90
2893;DHT22;1456;51.840;12.184;2023-07-31T07:37:32;18.40;99.90
2893;DHT22;1456;51.840;12.184;2023-07-31T07:39:58;18.60;99.90
2893;DHT22;1456;51.840;12.184;2023-07-31T07:42:25;18.60;99.90
2893;DHT22;1456;51.840;12.184;2023-07-31T07:44:51;18.70;99.90
2893;DHT22;1456;51.840;12.184;2023-07-31T07:47:19;18.80;99.90
2893;DHT22;1456;51.840;12.184;2023-07-31T07:49:46;19.10;99.90
2893;DHT22;1456;51.840;12.184;2023-07-31T07:52:14;19.20;99.90
2893;DHT22;1456;51.840;12.184;2023-07-31T07:54:41;19.40;99.90
2893;DHT22;1456;51.840;12.184;2023-07-31T07:57:08;19.30;99.90
2893;DHT22;1456;51.840;12.184;2023-07-31T07:59:35;19.50;99.90
2893;DHT22;1456;51.840;12.184;2023-07-31T08:02:00;19.60;99.90
2893;DHT22;1456;51.840;12.184;2023-07-31T08:04:30;19.80;99.90
2893;DHT22;1456;51.840;12.184;2023-07-31T08:06:56;19.80;99.90
2893;DHT22;1456;51.840;12.184;2023-07-31T08:09:21;19.80;99.90
2893;DHT22;1456;51.840;12.184;2023-07-31T08:11:49;19.80;99.90
2893;DHT22;1456;51.840;12.184;2023-07-31T08:14:19;20.00;99.90
2893;DHT22;1456;51.840;12.184;2023-07-31T08:16:45;20.20;99.90
2893;DHT22;1456;51.840;12.184;2023-07-31T08:19:11;20.30;99.90
2893;DHT22;1456;51.840;12.184;2023-07-31T08:21:38;20.30;99.90
2893;DHT22;1456;51.840;12.184;2023-07-31T08:24:05;20.60;99.90
2893;DHT22;1456;51.840;12.184;2023-07-31T08:26:37;20.90;99.90
2893;DHT22;1456;51.840;12.184;2023-07-31T08:29:02;20.90;99.90
2893;DHT22;1456;51.840;12.184;2023-07-31T08:31:30;21.10;99.90
2893;DHT22;1456;51.840;12.184;2023-07-31T08:33:57;21.50;99.90
2893;DHT22;1456;51.840;12.184;2023-07-31T08:36:23;21.70;99.90
2893;DHT22;1456;51.840;12.184;2023-07-31T08:38:49;21.90;99.90
2893;DHT22;1456;51.840;12.184;2023-07-31T08:41:15;21.40;99.90
2893;DHT22;1456;51.840;12.184;2023-07-31T08:43:49;20.90;99.90
2893;DHT22;1456;51.840;12.184;2023-07-31T08:46:16;21.00;99.90
2893;DHT22;1456;51.840;12.184;2023-07-31T08:48:42;21.30;99.90
2893;DHT22;1456;51.840;12.184;2023-07-31T08:51:14;21.60;99.90
2893;DHT22;1456;51.840;12.184;2023-07-31T08:53:41;21.90;99.90
2893;DHT22;1456;51.840;12.184;2023-07-31T08:56:08;21.80;99.90
2893;DHT22;1456;51.840;12.184;2023-07-31T08:58:35;22.20;99.90
2893;DHT22;1456;51.840;12.184;2023-07-31T09:01:04;22.60;99.90
2893;DHT22;1456;51.840;12.184;2023-07-31T09:03:33;22.30;99.90
2893;DHT22;1456;51.840;12.184;2023-07-31T09:06:00;22.40;99.90
2893;DHT22;1456;51.840;12.184;2023-07-31T09:08:27;22.30;99.90
2893;DHT22;1456;51.840;12.184;2023-07-31T09:10:59;22.60;99.90
2893;DHT22;1456;51.840;12.184;2023-07-31T09:13:27;22.70;99.90
2893;DHT22;1456;51.840;12.184;2023-07-31T09:15:54;22.00;99.90
2893;DHT22;1456;51.840;12.184;2023-07-31T09:18:21;22.10;99.90
2893;DHT22;1456;51.840;12.184;2023-07-31T09:21:04;21.80;99.90
2893;DHT22;1456;51.840;12.184;2023-07-31T09:23:44;21.40;99.90
2893;DHT22;1456;51.840;12.184;2023-07-31T09:26:10;21.50;99.90
2893;DHT22;1456;51.840;12.184;2023-07-31T09:28:37;21.60;99.90
2893;DHT22;1456;51.840;12.184;2023-07-31T09:31:02;21.50;99.90
2893;DHT22;1456;51.840;12.184;2023-07-31T09:33:28;21.30;99.90
2893;DHT22;1456;51.840;12.184;2023-07-31T09:36:01;21.50;99.90
2893;DHT22;1456;51.840;12.184;2023-07-31T09:38:28;21.40;99.90
2893;DHT22;1456;51.840;12.184;2023-07-31T09:40:55;21.30;99.90
2893;DHT22;1456;51.840;12.184;2023-07-31T09:43:24;21.30;99.90
2893;DHT22;1456;51.840;12.184;2023-07-31T09:45:56;21.00;99.90
2893;DHT22;1456;51.840;12.184;2023-07-31T09:48:24;20.60;99.90
2893;DHT22;1456;51.840;12.184;2023-07-31T09:50:53;20.40;99.90
2893;DHT22;1456;51.840;12.184;2023-07-31T09:53:28;20.30;99.90
2893;DHT22;1456;51.840;12.184;2023-07-31T09:55:58;20.30;99.90
2893;DHT22;1456;51.840;12.184;2023-07-31T09:58:28;20.30;99.90
2893;DHT22;1456;51.840;12.184;2023-07-31T10:00:54;20.30;99.90
2893;DHT22;1456;51.840;12.184;2023-07-31T10:03:22;20.20;99.90
2893;DHT22;1456;51.840;12.184;2023-07-31T10:05:53;20.10;99.90
2893;DHT22;1456;51.840;12.184;2023-07-31T10:08:27;20.10;99.90
2893;DHT22;1456;51.840;12.184;2023-07-31T10:11:00;20.10;99.90
2893;DHT22;1456;51.840;12.184;2023-07-31T10:13:29;20.20;99.90
2893;DHT22;1456;51.840;12.184;2023-07-31T10:15:59;20.30;99.90
2893;DHT22;1456;51.840;12.184;2023-07-31T10:18:28;20.50;99.90
2893;DHT22;1456;51.840;12.184;2023-07-31T10:20:54;20.50;99.90
2893;DHT22;1456;51.840;12.184;2023-07-31T10:23:23;20.50;99.90
2893;DHT22;1456;51.840;12.184;2023-07-31T10:25:51;20.30;99.90
2893;DHT22;1456;51.840;12.184;2023-07-31T10:28:20;20.30;99.90
2893;DHT22;1456;51.840;12.184;2023-07-31T10:30:47;20.20;99.90
2893;DHT22;1456;51.840;12.184;2023-07-31T10:33:14;20.30;99.90
2893;DHT22;1456;51.840;12.184;2023-07-31T10:35:41;20.50;99.90
2893;DHT22;1456;51.840;12.184;2023-07-31T10:38:12;20.60;99.90
2893;DHT22;1456;51.840;12.184;2023-07-31T10:40:41;20.80;99.90
2893;DHT22;1456;51.840;12.184;2023-07-31T10:43:07;21.00;99.90
2893;DHT22;1456;51.840;12.184;2023-07-31T10:45:43;21.30;99.90
2893;DHT22;1456;51.840;12.184;2023-07-31T10:48:13;21.60;99.90
2893;DHT22;1456;51.840;12.184;2023-07-31T10:50:51;21.50;99.90
2893;DHT22;1456;51.840;12.184;2023-07-31T10:53:30;21.60;99.90
2893;DHT22;1456;51.840;12.184;2023-07-31T10:56:07;21.70;99.90
2893;DHT22;1456;51.840;12.184;2023-07-31T10:58:39;21.90;99.90
2893;DHT22;1456;51.840;12.184;2023-07-31T11:01:06;22.50;99.90
2893;DHT22;1456;51.840;12.184;2023-07-31T11:03:47;22.70;99.90
2893;DHT22;1456;51.840;12.184;2023-07-31T11:06:16;22.80;99.90
2893;DHT22;1456;51.840;12.184;2023-07-31T11:08:50;22.80;99.90
2893;DHT22;1456;51.840;12.184;2023-07-31T11:11:17;22.70;99.90
2893;DHT22;1456;51.840;12.184;2023-07-31T11:13:51;22.20;99.90
2893;DHT22;1456;51.840;12.184;2023-07-31T11:16:22;22.00;99.90
2893;DHT22;1456;51.840;12.184;2023-07-31T11:18:48;21.70;99.90
2893;DHT22;1456;51.840;12.184;2023-07-31T11:21:16;21.50;99.90
2893;DHT22;1456;51.840;12.184;2023-07-31T11:23:49;21.30;99.90
2893;DHT22;1456;51.840;12.184;2023-07-31T11:26:16;21.10;99.90
2893;DHT22;1456;51.840;12.184;2023-07-31T11:28:45;20.80;99.90
2893;DHT22;1456;51.840;12.184;2023-07-31T11:31:12;20.60;99.90
2893;DHT22;1456;51.840;12.184;2023-07-31T11:33:37;20.50;99.90
2893;DHT22;1456;51.840;12.184;2023-07-31T11:36:03;20.40;99.90
2893;DHT22;1456;51.840;12.184;2023-07-31T11:38:31;20.20;99.90
2893;DHT22;1456;51.840;12.184;2023-07-31T11:40:59;20.20;99.90
2893;DHT22;1456;51.840;12.184;2023-07-31T11:43:26;20.20;99.90
2893;DHT22;1456;51.840;12.184;2023-07-31T11:45:58;20.30;99.90
2893;DHT22;1456;51.840;12.184;2023-07-31T11:48:29;20.50;99.90
2893;DHT22;1456;51.840;12.184;2023-07-31T11:51:05;20.70;99.90
2893;DHT22;1456;51.840;12.184;2023-07-31T11:53:41;21.10;99.90
2893;DHT22;1456;51.840;12.184;2023-07-31T11:56:11;21.50;99.90
2893;DHT22;1456;51.840;12.184;2023-07-31T11:58:39;21.30;99.90
2893;DHT22;1456;51.840;12.184;2023-07-31T12:01:08;21.50;99.90
2893;DHT22;1456;51.840;12.184;2023-07-31T12:03:34;21.20;99.90
2893;DHT22;1456;51.840;12.184;2023-07-31T12:06:02;21.10;99.90
2893;DHT22;1456;51.840;12.184;2023-07-31T12:08:29;21.20;99.90
2893;DHT22;1456;51.840;12.184;2023-07-31T12:11:04;21.50;99.90
2893;DHT22;1456;51.840;12.184;2023-07-31T12:13:32;22.00;99.90
2893;DHT22;1456;51.840;12.184;2023-07-31T12:16:01;22.20;99.90
2893;DHT22;1456;51.840;12.184;2023-07-31T12:18:30;22.30;99.90
2893;DHT22;1456;51.840;12.184;2023-07-31T12:20:58;22.30;99.90
2893;DHT22;1456;51.840;12.184;2023-07-31T12:23:44;22.70;99.90
2893;DHT22;1456;51.840;12.184;2023-07-31T12:26:14;23.40;99.90
2893;DHT22;1456;51.840;12.184;2023-07-31T12:28:47;24.00;99.90
2893;DHT22;1456;51.840;12.184;2023-07-31T12:31:20;24.90;99.90
2893;DHT22;1456;51.840;12.184;2023-07-31T12:33:51;24.50;99.00
2893;DHT22;1456;51.840;12.184;2023-07-31T12:36:23;23.90;98.60
2893;DHT22;1456;51.840;12.184;2023-07-31T12:38:50;23.40;99.40
2893;DHT22;1456;51.840;12.184;2023-07-31T12:41:18;23.00;99.80
2893;DHT22;1456;51.840;12.184;2023-07-31T12:43:45;22.70;99.90
2893;DHT22;1456;51.840;12.184;2023-07-31T12:46:12;22.50;99.90
2893;DHT22;1456;51.840;12.184;2023-07-31T12:48:38;22.30;99.90
2893;DHT22;1456;51.840;12.184;2023-07-31T12:51:05;22.10;99.90
2893;DHT22;1456;51.840;12.184;2023-07-31T12:53:33;22.10;99.90
2893;DHT22;1456;51.840;12.184;2023-07-31T12:56:01;22.20;99.90
2893;DHT22;1456;51.840;12.184;2023-07-31T12:58:30;22.40;99.90
2893;DHT22;1456;51.840;12.184;2023-07-31T13:00:57;22.50;99.90
2893;DHT22;1456;51.840;12.184;2023-07-31T13:03:23;22.80;99.90
2893;DHT22;1456;51.840;12.184;2023-07-31T13:05:48;23.30;99.90
2893;DHT22;1456;51.840;12.184;2023-07-31T13:08:14;23.80;99.90
2893;DHT22;1456;51.840;12.184;2023-07-31T13:10:41;23.90;99.80
2893;DHT22;1456;51.840;12.184;2023-07-31T13:13:07;23.30;99.70
2893;DHT22;1456;51.840;12.184;2023-07-31T13:15:33;23.10;99.90
2893;DHT22;1456;51.840;12.184;2023-07-31T13:17:58;23.60;99.90
2893;DHT22;1456;51.840;12.184;2023-07-31T13:20:27;23.90;99.90
2893;DHT22;1456;51.840;12.184;2023-07-31T13:22:52;24.50;99.90
2893;DHT22;1456;51.840;12.184;2023-07-31T13:25:18;24.20;99.70
2893;DHT22;1456;51.840;12.184;2023-07-31T13:27:44;23.80;99.90
2893;DHT22;1456;51.840;12.184;2023-07-31T13:30:10;24.00;99.90
2893;DHT22;1456;51.840;12.184;2023-07-31T13:32:38;23.70;99.30
2893;DHT22;1456;51.840;12.184;2023-07-31T13:35:06;23.40;99.30
2893;DHT22;1456;51.840;12.184;2023-07-31T13:37:34;23.30;99.70
2893;DHT22;1456;51.840;12.184;2023-07-31T13:40:01;23.30;99.60
2893;DHT22;1456;51.840;12.184;2023-07-31T13:42:26;23.70;99.90
2893;DHT22;1456;51.840;12.184;2023-07-31T13:44:54;24.40;99.90
2893;DHT22;1456;51.840;12.184;2023-07-31T13:47:21;24.70;98.60
2893;DHT22;1456;51.840;12.184;2023-07-31T13:49:47;24.50;98.10
2893;DHT22;1456;51.840;12.184;2023-07-31T13:52:12;24.40;98.80
2893;DHT22;1456;51.840;12.184;2023-07-31T13:54:41;24.00;98.80
2893;DHT22;1456;51.840;12.184;2023-07-31T13:57:10;23.40;99.10
2893;DHT22;1456;51.840;12.184;2023-07-31T13:59:37;23.00;99.50
2893;DHT22;1456;51.840;12.184;2023-07-31T14:02:03;23.20;99.90
2893;DHT22;1456;51.840;12.184;2023-07-31T14:04:30;22.80;99.90
2893;DHT22;1456;51.840;12.184;2023-07-31T14:06:56;22.70;99.90
2893;DHT22;1456;51.840;12.184;2023-07-31T14:09:22;22.70;99.90
2893;DHT22;1456;51.840;12.184;2023-07-31T14:11:47;22.60;99.90
2893;DHT22;1456;51.840;12.184;2023-07-31T14:14:16;22.60;99.90
2893;DHT22;1456;51.840;12.184;2023-07-31T14:16:49;22.60;99.90
2893;DHT22;1456;51.840;12.184;2023-07-31T14:19:15;22.70;99.90
2893;DHT22;1456;51.840;12.184;2023-07-31T14:21:42;22.70;99.90
2893;DHT22;1456;51.840;12.184;2023-07-31T14:24:08;22.40;99.90
2893;DHT22;1456;51.840;12.184;2023-07-31T14:26:35;22.40;99.90
2893;DHT22;1456;51.840;12.184;2023-07-31T14:29:00;22.40;99.90
2893;DHT22;1456;51.840;12.184;2023-07-31T14:31:26;22.60;99.90
2893;DHT22;1456;51.840;12.184;2023-07-31T14:33:54;22.60;99.90
2893;DHT22;1456;51.840;12.184;2023-07-31T14:36:22;22.50;99.90
2893;DHT22;1456;51.840;12.184;2023-07-31T14:38:48;22.20;99.90
2893;DHT22;1456;51.840;12.184;2023-07-31T14:41:16;21.80;99.90
2893;DHT22;1456;51.840;12.184;2023-07-31T14:43:41;21.50;99.90
2893;DHT22;1456;51.840;12.184;2023-07-31T14:46:07;21.40;99.90
2893;DHT22;1456;51.840;12.184;2023-07-31T14:48:33;21.60;99.90
2893;DHT22;1456;51.840;12.184;2023-07-31T14:51:03;21.80;99.90
2893;DHT22;1456;51.840;12.184;2023-07-31T14:53:29;22.10;99.90
2893;DHT22;1456;51.840;12.184;2023-07-31T14:56:01;22.10;99.90
2893;DHT22;1456;51.840;12.184;2023-07-31T14:58:29;22.00;99.90
2893;DHT22;1456;51.840;12.184;2023-07-31T15:00:55;22.00;99.90
2893;DHT22;1456;51.840;12.184;2023-07-31T15:03:21;22.00;99.90
2893;DHT22;1456;51.840;12.184;2023-07-31T15:05:48;22.10;99.90
2893;DHT22;1456;51.840;12.184;2023-07-31T15:08:15;22.20;99.90
2893;DHT22;1456;51.840;12.184;2023-07-31T15:10:42;22.20;99.90
2893;DHT22;1456;51.840;12.184;2023-07-31T15:13:08;22.30;99.90
2893;DHT22;1456;51.840;12.184;2023-07-31T15:15:34;22.10;99.90
2893;DHT22;1456;51.840;12.184;2023-07-31T15:18:00;22.10;99.90
2893;DHT22;1456;51.840;12.184;2023-07-31T15:20:30;22.10;99.90
2893;DHT22;1456;51.840;12.184;2023-07-31T15:22:58;22.10;99.90
2893;DHT22;1456;51.840;12.184;2023-07-31T15:25:24;22.00;99.90
2893;DHT22;1456;51.840;12.184;2023-07-31T15:27:50;21.90;99.90
2893;DHT22;1456;51.840;12.184;2023-07-31T15:30:16;22.00;99.90
2893;DHT22;1456;51.840;12.184;2023-07-31T15:32:42;22.20;99.90
2893;DHT22;1456;51.840;12.184;2023-07-31T15:35:10;22.00;99.90
2893;DHT22;1456;51.840;12.184;2023-07-31T15:37:36;22.10;99.90
2893;DHT22;1456;51.840;12.184;2023-07-31T15:40:03;22.10;99.90
2893;DHT22;1456;51.840;12.184;2023-07-31T15:42:30;22.00;99.90
2893;DHT22;1456;51.840;12.184;2023-07-31T15:44:58;21.90;99.90
2893;DHT22;1456;51.840;12.184;2023-07-31T15:47:25;21.90;99.90
2893;DHT22;1456;51.840;12.184;2023-07-31T15:49:51;21.80;99.90
2893;DHT22;1456;51.840;12.184;2023-07-31T15:52:18;21.90;99.90
2893;DHT22;1456;51.840;12.184;2023-07-31T15:54:47;21.90;99.90